Time;durP1;ratioP1;P1;durP2;ratioP2;P2;SDS_P1;SDS_P2;PMS_P1;PMS_P2;Temp;Humidity;BMP_temperature;BMP_pressure;BME280_temperature;BME280_humidity;BME280_pressure;Samples;Min_cycle;Max_cycle;Signal;HPM_P1;HPM_P2
2022/11/19 00:01:56;;;;;;;17.70;14.50;;;;;;;-1.84;60.28;99902.48;108121;1284;22709;-81
2022/11/19 00:04:24;;;;;;;18.10;14.50;;;;;;;-1.83;60.50;99905.03;108267;1285;21952;-81
2022/11/19 00:06:52;;;;;;;20.50;16.60;;;;;;;-1.82;60.46;99907.94;108218;1280;21934;-80
2022/11/19 00:09:22;;;;;;;25.40;19.00;;;;;;;-1.85;60.37;99907.77;107814;1288;22903;-80
2022/11/19 00:14:36;;;;;;;24.30;17.10;;;;;;;-1.93;60.49;99913.84;108097;1289;21970;-83
2022/11/19 00:17:04;;;;;;;23.80;17.60;;;;;;;-1.99;60.58;99912.63;107812;1286;23686;-82
2022/11/19 00:19:31;;;;;;;25.40;19.10;;;;;;;-2.02;60.55;99915.66;108165;1284;22007;-82
2022/11/19 00:21:59;;;;;;;27.80;20.80;;;;;;;-2.06;60.60;99922.30;108383;1283;23008;-82
2022/11/19 00:24:28;;;;;;;27.80;21.60;;;;;;;-2.10;60.60;99921.58;107997;1283;21937;-81
2022/11/19 00:26:55;;;;;;;26.90;19.60;;;;;;;-2.13;60.71;99928.72;108249;1277;22005;-82
2022/11/19 00:29:23;;;;;;;29.60;20.20;;;;;;;-2.16;60.79;99933.81;108681;1277;23663;-81
2022/11/19 00:31:51;;;;;;;27.10;18.10;;;;;;;-2.17;60.84;99935.86;108735;1277;22400;-82
2022/11/19 00:34:19;;;;;;;27.40;18.40;;;;;;;-2.20;60.86;99936.86;108554;1279;21928;-81
2022/11/19 00:36:47;;;;;;;22.60;17.10;;;;;;;-2.24;60.83;99938.88;108717;1278;22997;-81
2022/11/19 00:39:14;;;;;;;24.10;16.90;;;;;;;-2.30;61.02;99934.90;108566;1278;23064;-80
2022/11/19 00:41:42;;;;;;;27.30;17.10;;;;;;;-2.29;61.13;99932.35;108153;1285;21948;-81
2022/11/19 00:44:09;;;;;;;19.50;14.50;;;;;;;-2.34;61.18;99932.33;108308;1285;21968;-81
2022/11/19 00:46:37;;;;;;;26.30;16.40;;;;;;;-2.39;61.27;99937.21;108271;1285;21948;-82
2022/11/19 00:49:05;;;;;;;22.80;16.90;;;;;;;-2.42;61.48;99935.50;108455;1285;21989;-83
2022/11/19 00:51:35;;;;;;;24.80;16.00;;;;;;;-2.45;61.59;99938.52;108411;1286;23645;-81
2022/11/19 00:54:03;;;;;;;19.10;15.00;;;;;;;-2.49;61.72;99941.56;108497;1286;21958;-82
2022/11/19 00:56:31;;;;;;;20.40;14.90;;;;;;;-2.53;61.71;99947.83;108220;1286;21960;-82
2022/11/19 00:59:04;;;;;;;23.60;15.30;;;;;;;-2.57;61.76;99945.41;108356;1280;21971;-82
2022/11/19 01:01:33;;;;;;;22.10;14.00;;;;;;;-2.61;61.84;99943.85;108254;1285;21938;-81
2022/11/19 01:04:01;;;;;;;24.60;16.80;;;;;;;-2.63;61.89;99947.07;108332;1286;21945;-81
2022/11/19 01:06:31;;;;;;;31.00;19.80;;;;;;;-2.67;61.96;99948.05;108060;1288;21938;-81
2022/11/19 01:08:59;;;;;;;32.80;21.40;;;;;;;-2.69;62.20;99946.85;107924;1288;21945;-80
2022/11/19 01:11:30;;;;;;;32.10;20.80;;;;;;;-2.68;62.37;99946.67;108041;1286;21965;-81
2022/11/19 01:13:58;;;;;;;35.10;21.70;;;;;;;-2.68;62.47;99950.93;108122;1286;21952;-81
2022/11/19 01:16:35;;;;;;;38.60;26.30;;;;;;;-2.70;62.57;99948.36;108060;1286;21953;-81
2022/11/19 01:19:06;;;;;;;36.50;23.70;;;;;;;-2.73;62.49;99950.54;108054;1283;23154;-81
2022/11/19 01:21:35;;;;;;;31.60;20.80;;;;;;;-2.78;62.57;99955.96;108237;1286;23093;-81
2022/11/19 01:24:04;;;;;;;27.30;20.90;;;;;;;-2.81;62.76;99957.27;108289;1277;23762;-80
2022/11/19 01:26:31;;;;;;;28.00;21.70;;;;;;;-2.84;62.89;99957.92;108639;1280;23051;-80
2022/11/19 01:28:59;;;;;;;27.20;20.90;;;;;;;-2.87;63.05;99957.73;108405;1278;21928;-80
2022/11/19 01:31:29;;;;;;;29.70;24.30;;;;;;;-2.90;63.13;99963.32;108770;1278;23601;-80
2022/11/19 01:33:58;;;;;;;35.70;25.90;;;;;;;-2.91;63.25;99968.75;108375;1284;23052;-79
2022/11/19 01:36:29;;;;;;;44.20;28.80;;;;;;;-2.92;63.35;99969.42;107959;1289;21947;-80
2022/11/19 01:38:57;;;;;;;42.20;28.40;;;;;;;-2.91;63.45;99971.14;107918;1289;21946;-81
2022/11/19 01:41:31;;;;;;;47.20;30.60;;;;;;;-2.90;63.52;99971.48;108051;1286;21976;-81
2022/11/19 01:44:27;;;;;;;41.30;26.90;;;;;;;-2.90;63.64;99972.85;108039;1286;21962;-82
2022/11/19 01:46:55;;;;;;;39.60;26.40;;;;;;;-2.91;63.70;99973.70;108033;1287;22971;-82
2022/11/19 01:49:22;;;;;;;38.20;23.70;;;;;;;-2.91;63.68;99972.16;107957;1288;23621;-81
2022/11/19 01:51:57;;;;;;;41.10;25.10;;;;;;;-2.90;63.71;99974.55;108065;1284;21963;-81
2022/11/19 01:54:34;;;;;;;38.70;25.40;;;;;;;-2.91;63.77;99975.05;108418;1277;23612;-79
2022/11/19 01:57:07;;;;;;;34.00;24.50;;;;;;;-2.93;63.71;99974.70;108601;1279;23578;-80
2022/11/19 01:59:37;;;;;;;35.60;24.10;;;;;;;-2.96;63.68;99968.37;108719;1278;21954;-79
2022/11/19 02:02:05;;;;;;;31.50;23.10;;;;;;;-3.01;63.67;99968.66;108600;1277;23704;-80
2022/11/19 02:04:35;;;;;;;33.40;23.70;;;;;;;-3.06;63.78;99964.68;108712;1276;21973;-80
2022/11/19 02:07:03;;;;;;;33.10;23.50;;;;;;;-3.10;63.80;99966.83;108678;1277;22244;-80
2022/11/19 02:09:32;;;;;;;33.50;22.30;;;;;;;-3.16;63.91;99967.80;108591;1277;21956;-80
2022/11/19 02:12:37;;;;;;;28.90;20.10;;;;;;;-3.20;63.94;99975.76;108527;1278;22687;-79
2022/11/19 02:15:53;;;;;;;30.40;19.80;;;;;;;-3.25;64.10;99978.77;108494;1277;23694;-80
2022/11/19 02:19:00;;;;;;;29.80;19.50;;;;;;;-3.31;64.12;99980.55;108749;1278;23597;-80
2022/11/19 02:22:05;;;;;;;25.10;18.80;;;;;;;-3.35;64.25;99983.23;108810;1277;21936;-80
2022/11/19 02:24:44;;;;;;;31.40;19.90;;;;;;;-3.36;64.37;99982.52;108732;1271;21969;-80
2022/11/19 02:27:39;;;;;;;26.10;19.30;;;;;;;-3.36;64.45;99982.20;108758;1277;21949;-80
2022/11/19 02:30:17;;;;;;;23.90;18.10;;;;;;;-3.39;64.48;99980.45;108708;1277;23082;-80
2022/11/19 02:33:04;;;;;;;24.50;19.00;;;;;;;-3.42;64.45;99980.24;108708;1277;23657;-80
2022/11/19 02:36:14;;;;;;;23.30;17.00;;;;;;;-3.46;64.46;99975.77;108777;1280;23034;-80
2022/11/19 02:39:03;;;;;;;22.00;17.70;;;;;;;-3.51;64.62;99972.48;108485;1282;23662;-80
2022/11/19 02:42:06;;;;;;;26.00;19.70;;;;;;;-3.53;64.85;99971.09;108305;1276;21943;-80
2022/11/19 02:45:08;;;;;;;28.80;19.70;;;;;;;-3.54;64.94;99971.40;108004;1287;21931;-80
2022/11/19 02:48:02;;;;;;;30.60;21.70;;;;;;;-3.55;65.17;99973.27;107902;1286;23088;-80
2022/11/19 02:50:42;;;;;;;27.30;20.00;;;;;;;-3.57;65.17;99975.62;107996;1286;21949;-80
2022/11/19 02:53:09;;;;;;;31.30;21.40;;;;;;;-3.60;65.05;99978.82;107775;1286;21922;-80
2022/11/19 02:55:38;;;;;;;32.80;23.30;;;;;;;-3.63;65.09;99979.96;107794;1290;21994;-80
2022/11/19 03:06:43;;;;;;;40.10;27.40;;;;;;;-3.81;65.19;99976.81;108495;1277;22340;-81
2022/11/19 03:09:12;;;;;;;40.60;28.40;;;;;;;-3.82;65.25;99976.80;108627;1277;21974;-81
2022/11/19 03:11:45;;;;;;;44.70;31.60;;;;;;;-3.83;65.38;99976.98;108665;1277;21986;-81
2022/11/19 03:17:55;;;;;;;43.50;34.70;;;;;;;-3.87;65.43;99989.32;108683;1280;22018;-82
2022/11/19 03:20:38;;;;;;;44.20;36.30;;;;;;;-3.89;65.50;99993.88;108373;1283;21909;-81
2022/11/19 03:23:33;;;;;;;42.60;36.30;;;;;;;-3.91;65.46;99995.04;108307;1282;21967;-82
2022/11/19 03:26:10;;;;;;;38.90;33.40;;;;;;;-3.91;65.60;99996.39;108480;1283;23587;-81
2022/11/19 03:28:38;;;;;;;39.50;32.40;;;;;;;-3.92;65.54;99998.77;108557;1283;21937;-81
2022/11/19 03:31:08;;;;;;;37.90;32.70;;;;;;;-3.93;65.53;100001.29;108623;1282;23599;-82
2022/11/19 03:33:47;;;;;;;42.70;33.00;;;;;;;-3.94;65.57;100006.70;108710;1277;21957;-82
2022/11/19 03:36:28;;;;;;;38.90;32.80;;;;;;;-3.97;65.60;100009.91;108882;1277;21961;-82
2022/11/19 03:39:03;;;;;;;43.50;35.80;;;;;;;-4.02;65.62;100010.35;108369;1283;23804;-81
2022/11/19 03:41:34;;;;;;;41.00;36.70;;;;;;;-4.06;65.63;100011.29;107687;1287;23100;-82
2022/11/19 03:44:15;;;;;;;39.20;33.20;;;;;;;-4.10;65.61;100015.98;108066;1289;21958;-81
2022/11/19 03:46:48;;;;;;;36.60;31.20;;;;;;;-4.14;65.50;100020.67;107801;1288;23084;-81
2022/11/19 03:49:20;;;;;;;32.20;25.60;;;;;;;-4.17;65.46;100019.11;107908;1289;23668;-82
2022/11/19 03:51:58;;;;;;;;;;;;;;;-4.21;65.48;100020.58;108000;1289;21965;-82
2022/11/19 03:54:27;;;;;;;33.10;21.80;;;;;;;-4.30;65.62;100024.83;107754;1289;22831;-83
2022/11/19 03:56:58;;;;;;;28.90;21.50;;;;;;;-4.32;65.77;100029.38;108077;1283;23700;-81
2022/11/19 03:59:26;;;;;;;29.10;20.10;;;;;;;-4.31;65.79;100033.98;108488;1277;22722;-81
2022/11/19 04:02:06;;;;;;;31.90;22.30;;;;;;;-4.31;65.79;100036.54;108816;1278;22071;-81
2022/11/19 04:04:38;;;;;;;31.30;21.40;;;;;;;-4.32;65.85;100039.75;108766;1277;21937;-81
2022/11/19 04:07:11;;;;;;;28.10;20.50;;;;;;;-4.31;65.93;100045.54;108884;1276;22369;-81
2022/11/19 04:09:41;;;;;;;27.20;21.40;;;;;;;-4.31;65.87;100051.83;108836;1278;23675;-81
2022/11/19 04:12:29;;;;;;;30.20;20.10;;;;;;;-4.31;65.97;100058.46;108892;1278;21941;-81
2022/11/19 04:14:57;;;;;;;25.60;20.90;;;;;;;-4.31;66.13;100062.20;108810;1278;21923;-81
2022/11/19 04:17:24;;;;;;;35.60;23.90;;;;;;;-4.27;66.27;100067.86;108563;1277;23018;-81
2022/11/19 04:19:52;;;;;;;30.70;22.40;;;;;;;-4.25;66.21;100073.84;108759;1277;21923;-80
2022/11/19 04:22:20;;;;;;;28.50;21.90;;;;;;;-4.25;66.21;100072.65;108851;1277;23081;-80
2022/11/19 04:24:48;;;;;;;32.00;24.50;;;;;;;-4.25;66.19;100079.27;108658;1277;21941;-80
2022/11/19 04:27:16;;;;;;;32.40;25.10;;;;;;;-4.28;66.25;100082.80;108917;1278;23676;-79
2022/11/19 04:29:44;;;;;;;31.20;23.70;;;;;;;-4.30;66.26;100080.91;108716;1277;21931;-80
2022/11/19 04:32:11;;;;;;;30.80;24.10;;;;;;;-4.32;66.29;100081.38;108728;1277;21907;-80
2022/11/19 04:34:39;;;;;;;39.40;25.60;;;;;;;-4.36;66.25;100086.73;108631;1277;21945;-80
2022/11/19 04:37:06;;;;;;;32.10;23.50;;;;;;;-4.41;66.22;100085.29;108783;1278;21923;-82
2022/11/19 04:39:34;;;;;;;37.80;25.90;;;;;;;-4.44;66.21;100087.42;108696;1276;23054;-81
2022/11/19 04:42:02;;;;;;;37.20;26.30;;;;;;;-4.47;66.32;100088.91;108711;1278;23002;-81
2022/11/19 04:44:30;;;;;;;39.00;25.80;;;;;;;-4.49;66.30;100087.70;108830;1277;22014;-80
2022/11/19 04:46:58;;;;;;;42.50;27.30;;;;;;;-4.51;66.26;100086.29;108690;1275;22392;-80
2022/11/19 04:49:26;;;;;;;42.40;25.70;;;;;;;-4.52;66.43;100085.08;108424;1283;21944;-79
2022/11/19 04:51:53;;;;;;;37.00;27.10;;;;;;;-4.51;66.52;100086.29;107849;1286;23087;-79
2022/11/19 04:54:21;;;;;;;43.00;28.20;;;;;;;-4.52;66.51;100083.21;108148;1283;23695;-80
2022/11/19 04:56:49;;;;;;;40.40;28.30;;;;;;;-4.52;66.54;100083.05;108149;1283;21960;-79
2022/11/19 04:59:19;;;;;;;39.30;27.70;;;;;;;-4.54;66.39;100084.86;108135;1285;21941;-80
2022/11/19 05:01:48;;;;;;;42.20;28.30;;;;;;;-4.56;66.39;100083.13;108417;1283;23081;-81
2022/11/19 05:04:16;;;;;;;39.00;27.40;;;;;;;-4.58;66.32;100083.93;108216;1283;22009;-79
2022/11/19 05:06:44;;;;;;;36.50;27.50;;;;;;;-4.60;66.38;100084.60;108066;1277;21937;-79
2022/11/19 05:09:11;;;;;;;37.60;26.10;;;;;;;-4.63;66.33;100089.63;108430;1277;21958;-80
2022/11/19 05:11:39;;;;;;;36.50;26.30;;;;;;;-4.64;66.45;100090.79;108553;1277;21961;-81
2022/11/19 05:14:07;;;;;;;34.90;25.30;;;;;;;-4.64;66.55;100091.29;108778;1277;24366;-81
2022/11/19 05:16:35;;;;;;;37.00;25.60;;;;;;;-4.66;66.60;100091.95;108731;1278;21935;-80
2022/11/19 05:19:03;;;;;;;39.00;27.30;;;;;;;-4.70;66.55;100091.02;108468;1277;23069;-79
2022/11/19 05:21:31;;;;;;;35.80;26.40;;;;;;;-4.76;66.49;100093.79;108720;1275;21930;-80
2022/11/19 05:23:58;;;;;;;36.10;25.20;;;;;;;-4.81;66.55;100094.20;108539;1277;21946;-81
2022/11/19 05:26:26;;;;;;;33.80;24.40;;;;;;;-4.84;66.57;100090.73;108536;1278;21986;-82
2022/11/19 05:28:54;;;;;;;34.50;23.70;;;;;;;-4.87;66.63;100088.63;108665;1277;23673;-81
2022/11/19 05:31:21;;;;;;;31.50;23.70;;;;;;;-4.89;66.67;100090.98;108552;1278;21927;-81
2022/11/19 05:33:49;;;;;;;38.40;23.20;;;;;;;-4.92;66.62;100091.42;108592;1277;21942;-81
2022/11/19 05:36:17;;;;;;;35.70;23.80;;;;;;;-4.94;66.69;100091.73;108621;1277;21998;-80
2022/11/19 05:38:44;;;;;;;34.10;23.10;;;;;;;-4.94;66.79;100095.79;108334;1285;21941;-81
2022/11/19 05:41:12;;;;;;;38.10;25.60;;;;;;;-4.95;66.77;100096.13;108242;1284;21900;-80
2022/11/19 05:43:40;;;;;;;42.00;26.90;;;;;;;-4.96;66.82;100100.00;108360;1285;22399;-79
2022/11/19 05:46:07;;;;;;;32.70;23.70;;;;;;;-4.97;66.84;100099.46;107934;1285;23114;-79
2022/11/19 05:48:35;;;;;;;30.90;23.90;;;;;;;-4.98;66.75;100103.17;107985;1286;22015;-81
2022/11/19 05:51:03;;;;;;;35.40;24.50;;;;;;;-5.01;66.78;100104.30;108032;1285;23694;-80
2022/11/19 05:53:31;;;;;;;43.00;26.20;;;;;;;-5.02;66.78;100103.92;108171;1283;22027;-80
2022/11/19 05:55:58;;;;;;;41.00;25.40;;;;;;;-5.05;66.89;100102.17;108196;1278;23041;-80
2022/11/19 05:58:26;;;;;;;37.40;28.30;;;;;;;-5.07;66.81;100100.42;108621;1278;23074;-80
2022/11/19 06:00:55;;;;;;;38.30;27.50;;;;;;;-5.09;66.91;100100.40;108764;1277;23000;-82
2022/11/19 06:03:23;;;;;;;42.70;29.00;;;;;;;-5.13;66.97;100100.65;108341;1280;24098;-82
2022/11/19 06:05:51;;;;;;;42.70;28.50;;;;;;;-5.18;66.93;100103.77;108389;1280;23702;-79
2022/11/19 06:08:19;;;;;;;44.00;33.00;;;;;;;-5.23;66.82;100102.80;108405;1281;21953;-78
2022/11/19 06:10:47;;;;;;;40.00;29.10;;;;;;;-5.29;66.83;100110.15;108275;1280;21932;-79
2022/11/19 06:13:18;;;;;;;39.50;30.00;;;;;;;-5.32;66.95;100110.58;108354;1283;22046;-79
2022/11/19 06:15:47;;;;;;;40.50;28.80;;;;;;;-5.35;66.98;100113.75;107929;1280;21944;-78
2022/11/19 06:18:14;;;;;;;38.40;28.50;;;;;;;-5.38;66.92;100116.21;108164;1281;21933;-77
2022/11/19 06:20:42;;;;;;;37.80;27.60;;;;;;;-5.40;67.06;100116.52;108139;1268;23071;-79
2022/11/19 06:23:10;;;;;;;37.30;26.80;;;;;;;-5.39;67.24;100120.42;108732;1276;21942;-79
2022/11/19 06:25:37;;;;;;;34.00;25.70;;;;;;;-5.37;67.35;100120.63;108667;1276;23845;-77
2022/11/19 06:28:05;;;;;;;46.30;30.60;;;;;;;-5.34;67.43;100124.61;108317;1277;22720;-78
2022/11/19 06:30:33;;;;;;;42.00;28.20;;;;;;;-5.30;67.50;100123.52;108268;1277;21966;-78
2022/11/19 06:33:01;;;;;;;41.70;29.60;;;;;;;-5.27;67.60;100126.31;108536;1276;21929;-78
2022/11/19 06:35:28;;;;;;;39.50;28.70;;;;;;;-5.24;67.57;100126.71;108574;1277;21935;-78
2022/11/19 06:37:56;;;;;;;45.70;31.60;;;;;;;-5.22;67.64;100128.62;108464;1277;21950;-78
2022/11/19 06:40:24;;;;;;;49.10;32.30;;;;;;;-5.20;67.62;100126.96;108486;1277;22820;-78
2022/11/19 06:42:52;;;;;;;48.30;32.90;;;;;;;-5.20;67.52;100130.03;108536;1277;21951;-77
2022/11/19 06:45:20;;;;;;;52.40;34.70;;;;;;;-5.22;67.48;100131.01;108633;1276;21954;-77
2022/11/19 06:47:48;;;;;;;52.30;34.20;;;;;;;-5.22;67.70;100132.52;108348;1275;23018;-77
2022/11/19 06:50:16;;;;;;;46.60;32.90;;;;;;;-5.22;67.75;100130.81;108549;1275;23777;-76
2022/11/19 06:52:44;;;;;;;49.90;35.80;;;;;;;-5.23;67.72;100131.98;108538;1277;23780;-78
2022/11/19 06:55:13;;;;;;;48.80;36.20;;;;;;;-5.22;67.82;100134.20;108497;1277;21957;-78
2022/11/19 06:57:41;;;;;;;53.90;34.50;;;;;;;-5.21;67.89;100136.63;108577;1272;21978;-77
2022/11/19 07:00:10;;;;;;;56.30;38.10;;;;;;;-5.18;67.92;100136.34;108490;1275;22705;-77
2022/11/19 07:02:38;;;;;;;55.10;37.20;;;;;;;-5.15;67.93;100136.24;108554;1277;22984;-77
2022/11/19 07:05:07;;;;;;;50.20;34.30;;;;;;;-5.11;67.99;100133.45;108559;1277;23100;-77
2022/11/19 07:07:35;;;;;;;50.60;36.80;;;;;;;-5.06;68.04;100135.76;108533;1277;22271;-79
2022/11/19 07:10:02;;;;;;;57.40;38.70;;;;;;;-5.01;68.17;100136.38;108490;1278;21933;-77
2022/11/19 07:12:30;;;;;;;57.30;41.70;;;;;;;-4.96;68.22;100139.52;108307;1277;21936;-76
2022/11/19 07:14:58;;;;;;;50.30;36.70;;;;;;;-4.92;68.20;100143.86;108096;1280;23077;-77
2022/11/19 07:17:32;;;;;;;51.90;38.30;;;;;;;-4.87;68.28;100141.59;108115;1283;23574;-79
2022/11/19 07:20:01;;;;;;;50.40;35.00;;;;;;;-4.81;68.29;100137.64;107515;1283;23956;-76
2022/11/19 07:22:30;;;;;;;70.40;50.70;;;;;;;-4.75;68.45;100140.48;107488;1286;21960;-77
2022/11/19 07:24:58;;;;;;;75.70;53.60;;;;;;;-4.70;68.37;100139.56;107701;1288;24319;-82
2022/11/19 07:27:25;;;;;;;77.70;54.50;;;;;;;-4.64;68.57;100144.45;107776;1288;22053;-77
2022/11/19 07:29:53;;;;;;;83.40;55.60;;;;;;;-4.58;68.63;100142.88;107568;1289;21971;-78
2022/11/19 07:32:21;;;;;;;81.60;54.30;;;;;;;-4.56;68.50;100145.47;107989;1286;22040;-79
2022/11/19 07:34:49;;;;;;;86.80;56.50;;;;;;;-4.55;68.52;100148.55;108111;1283;23121;-79
2022/11/19 07:37:20;;;;;;;71.90;54.30;;;;;;;-4.51;68.68;100148.45;108118;1278;22951;-80
2022/11/19 07:39:48;;;;;;;80.10;51.60;;;;;;;-4.46;68.72;100144.83;108633;1277;23233;-82
2022/11/19 07:45:08;;;;;;;90.50;60.70;;;;;;;-4.39;68.72;100141.04;108338;1283;21944;-79
2022/11/19 07:47:36;;;;;;;92.70;60.60;;;;;;;-4.36;68.76;100142.80;108309;1283;21944;-78
2022/11/19 07:50:05;;;;;;;87.70;63.00;;;;;;;-4.31;68.80;100146.98;107967;1283;21958;-80
2022/11/19 07:52:32;;;;;;;96.60;65.60;;;;;;;-4.27;68.91;100150.45;107903;1278;21935;-78
2022/11/19 07:55:00;;;;;;;101.30;65.60;;;;;;;-4.19;69.06;100151.45;107493;1288;22218;-78
2022/11/19 07:57:28;;;;;;;92.20;61.70;;;;;;;-4.09;69.08;100154.02;107397;1288;23232;-79
2022/11/19 07:59:57;;;;;;;81.30;55.30;;;;;;;-3.99;69.13;100152.32;107650;1283;23197;-79
2022/11/19 08:02:25;;;;;;;86.00;57.80;;;;;;;-3.87;69.34;100158.14;108325;1281;23112;-80
2022/11/19 08:04:53;;;;;;;82.90;60.40;;;;;;;-3.66;70.01;100160.71;108252;1283;21949;-79
2022/11/19 08:07:21;;;;;;;88.20;60.40;;;;;;;-3.45;70.07;100163.95;107917;1286;21961;-79
2022/11/19 08:09:48;;;;;;;74.00;54.80;;;;;;;-3.32;69.64;100160.58;107692;1286;21948;-78
2022/11/19 08:12:16;;;;;;;78.00;54.00;;;;;;;-3.23;69.48;100163.61;107792;1285;23013;-79
2022/11/19 08:14:44;;;;;;;81.90;54.50;;;;;;;-3.17;69.13;100166.10;107774;1286;21926;-78
2022/11/19 08:19:57;;;;;;;81.60;57.00;;;;;;;-3.05;68.97;100168.48;108078;1279;22225;-78
2022/11/19 08:22:25;;;;;;;92.10;60.50;;;;;;;-2.99;68.89;100170.94;107789;1283;23606;-78
2022/11/19 08:24:52;;;;;;;92.70;62.30;;;;;;;-2.92;68.90;100171.89;108212;1277;24263;-79
2022/11/19 08:27:20;;;;;;;90.80;62.60;;;;;;;-2.82;69.17;100172.89;108447;1278;21922;-79
2022/11/19 08:29:48;;;;;;;98.60;68.30;;;;;;;-2.66;69.25;100172.41;108499;1277;22390;-79
2022/11/19 08:32:16;;;;;;;97.00;71.00;;;;;;;-2.51;69.22;100173.80;108522;1275;23011;-81
2022/11/19 08:34:44;;;;;;;92.80;65.20;;;;;;;-2.35;69.30;100173.48;108727;1277;21935;-81
2022/11/19 08:37:12;;;;;;;85.80;61.90;;;;;;;-2.19;69.10;100175.38;108719;1271;21972;-81
2022/11/19 08:39:40;;;;;;;72.50;53.20;;;;;;;-2.03;68.85;100169.23;108669;1278;22410;-81
2022/11/19 08:44:55;;;;;;;84.60;59.20;;;;;;;-1.83;68.07;100167.04;108416;1283;21944;-81
2022/11/19 08:47:22;;;;;;;101.00;65.50;;;;;;;-1.65;68.40;100168.23;108270;1282;23346;-82
2022/11/19 08:49:50;;;;;;;106.40;69.10;;;;;;;-1.42;68.59;100168.94;107888;1288;21964;-79
2022/11/19 08:52:18;;;;;;;94.60;63.10;;;;;;;-1.21;68.30;100171.65;108245;1286;21944;-79
2022/11/19 08:54:45;;;;;;;91.70;60.70;;;;;;;-1.06;67.87;100171.09;107753;1286;21982;-80
2022/11/19 08:57:13;;;;;;;78.20;54.10;;;;;;;-0.95;67.41;100167.41;107778;1286;23067;-80
2022/11/19 08:59:41;;;;;;;69.90;50.50;;;;;;;-0.83;67.15;100166.62;108131;1283;23731;-79
2022/11/19 09:02:10;;;;;;;74.40;54.30;;;;;;;-0.68;66.98;100170.98;108294;1267;21959;-78
2022/11/19 09:04:38;;;;;;;59.40;43.30;;;;;;;-0.57;66.24;100172.89;108117;1282;21958;-78
2022/11/19 09:07:06;;;;;;;53.10;41.90;;;;;;;-0.50;65.75;100172.75;108095;1277;21934;-79
2022/11/19 09:09:33;;;;;;;43.90;36.30;;;;;;;-0.42;65.27;100168.68;108471;1277;21935;-78
2022/11/19 09:12:01;;;;;;;47.60;38.70;;;;;;;-0.39;64.03;100168.36;108494;1276;21935;-80
2022/11/19 09:14:29;;;;;;;38.10;32.10;;;;;;;-0.47;63.23;100169.70;108786;1275;21935;-79
2022/11/19 09:16:57;;;;;;;38.50;34.30;;;;;;;-0.51;63.26;100163.52;108530;1277;22707;-79
2022/11/19 09:19:25;;;;;;;32.70;27.50;;;;;;;-0.50;62.46;100163.87;108213;1279;24499;-78
2022/11/19 09:21:53;;;;;;;45.80;31.00;;;;;;;-0.51;62.52;100161.98;108207;1281;23779;-78
2022/11/19 09:24:21;;;;;;;65.80;44.00;;;;;;;-0.48;62.46;100161.30;108315;1280;22320;-79
2022/11/19 09:26:49;;;;;;;29.10;21.60;;;;;;;-0.41;62.14;100161.34;107653;1286;23066;-79
2022/11/19 09:29:20;;;;;;;22.80;16.50;;;;;;;-0.39;61.14;100162.02;107960;1286;23001;-79
2022/11/19 09:31:48;;;;;;;28.10;20.20;;;;;;;-0.44;60.36;100161.17;107813;1286;21990;-79
2022/11/19 09:34:16;;;;;;;28.90;20.20;;;;;;;-0.38;60.87;100161.00;107971;1286;22371;-79
2022/11/19 09:36:44;;;;;;;25.30;19.90;;;;;;;-0.28;60.66;100163.45;107748;1286;21984;-79
2022/11/19 09:39:12;;;;;;;28.10;22.60;;;;;;;-0.18;60.44;100166.39;107992;1286;21959;-78
2022/11/19 09:42:05;;;;;;;25.80;21.10;;;;;;;-0.10;59.75;100170.52;107739;1284;22012;-78
2022/11/19 09:45:06;;;;;;;26.10;19.50;;;;;;;-0.12;59.02;100170.67;107934;1276;22456;-79
2022/11/19 09:47:53;;;;;;;32.70;26.70;;;;;;;-0.21;57.42;100166.89;108642;1276;21927;-79
2022/11/19 09:50:29;;;;;;;24.50;20.60;;;;;;;-0.27;57.54;100166.52;108486;1275;23644;-78
2022/11/19 09:53:14;;;;;;;32.10;22.60;;;;;;;-0.21;57.99;100164.14;108792;1278;23682;-78
2022/11/19 09:55:45;;;;;;;25.70;20.90;;;;;;;-0.11;58.01;100162.48;108613;1278;22102;-80
2022/11/19 09:58:21;;;;;;;32.70;23.50;;;;;;;0.00;57.59;100157.20;108222;1281;21953;-78
2022/11/19 10:00:49;;;;;;;30.50;25.60;;;;;;;0.09;57.80;100152.25;108162;1281;21953;-78
2022/11/19 10:03:22;;;;;;;30.00;25.30;;;;;;;0.25;57.93;100150.89;107954;1283;21944;-79
2022/11/19 10:06:09;;;;;;;35.90;28.70;;;;;;;0.36;57.46;100150.39;108454;1282;21939;-83
2022/11/19 10:09:11;;;;;;;43.50;34.40;;;;;;;0.40;56.94;100151.25;108053;1282;23804;-80
2022/11/19 10:11:52;;;;;;;32.50;25.00;;;;;;;0.45;56.32;100153.32;108388;1270;22880;-79
2022/11/19 10:14:34;;;;;;;40.20;28.90;;;;;;;0.51;56.50;100152.63;108236;1280;23778;-78
2022/11/19 10:17:40;;;;;;;39.00;31.70;;;;;;;0.62;56.41;100151.95;108391;1277;21952;-80
2022/11/19 10:20:46;;;;;;;32.90;25.20;;;;;;;0.77;56.27;100150.73;108548;1273;23062;-80
2022/11/19 10:23:31;;;;;;;27.60;22.70;;;;;;;0.89;55.20;100150.55;108789;1277;23001;-85
2022/11/19 10:26:12;;;;;;;31.80;26.50;;;;;;;1.06;55.45;100150.34;108726;1276;22366;-78
2022/11/19 10:28:55;;;;;;;26.80;23.70;;;;;;;1.37;55.86;100145.80;108587;1275;23059;-83
2022/11/19 10:31:42;;;;;;;37.00;29.40;;;;;;;1.72;55.72;100141.17;108528;1267;21924;-80
2022/11/19 10:34:11;;;;;;;35.00;24.40;;;;;;;2.06;54.46;100131.71;107589;1276;1313585;-79
2022/11/19 10:36:49;;;;;;;21.60;19.40;;;;;;;2.30;54.04;100132.08;108521;1277;22717;-80
2022/11/19 10:39:29;;;;;;;28.20;24.40;;;;;;;2.66;54.14;100129.71;108440;1272;21939;-79
2022/11/19 10:42:19;;;;;;;21.50;18.40;;;;;;;2.97;53.32;100125.30;107807;1286;21989;-80
2022/11/19 10:44:57;;;;;;;29.20;23.60;;;;;;;3.19;52.52;100125.75;107809;1288;23102;-80
2022/11/19 10:48:12;;;;;;;23.50;19.30;;;;;;;3.56;53.68;100122.56;107729;1286;21966;-81
2022/11/19 10:50:41;;;;;;;94.50;66.10;;;;;;;4.10;52.50;100127.68;107669;1288;22397;-80
2022/11/19 10:53:31;;;;;;;26.30;22.00;;;;;;;4.41;51.02;100129.27;107515;1288;23699;-79
2022/11/19 10:56:08;;;;;;;26.20;22.30;;;;;;;4.48;49.92;100130.54;107538;1289;23254;-78
2022/11/19 10:59:15;;;;;;;24.60;22.10;;;;;;;4.51;49.82;100130.64;108189;1283;23608;-79
2022/11/19 11:01:48;;;;;;;17.90;16.00;;;;;;;4.37;46.69;100126.91;108356;1275;21984;-80
2022/11/19 11:04:23;;;;;;;22.80;18.60;;;;;;;3.76;45.23;100121.42;108299;1283;21943;-78
2022/11/19 11:07:02;;;;;;;23.00;18.30;;;;;;;3.47;46.92;100119.23;107975;1281;21954;-78
2022/11/19 11:09:35;;;;;;;29.90;24.50;;;;;;;3.30;46.83;100118.41;107972;1283;22010;-78
2022/11/19 11:15:24;;;;;;;19.90;17.60;;;;;;;2.73;47.09;100118.83;108073;1283;23677;-79
2022/11/19 11:18:11;;;;;;;40.10;29.80;;;;;;;2.41;47.12;100112.77;108197;1279;21943;-78
2022/11/19 11:20:50;;;;;;;45.00;33.50;;;;;;;2.13;47.43;100116.23;107929;1283;21947;-78
2022/11/19 11:23:27;;;;;;;32.70;24.50;;;;;;;1.93;47.70;100116.38;108194;1282;23807;-79
2022/11/19 11:26:06;;;;;;;27.40;23.40;;;;;;;1.72;47.78;100110.48;107849;1289;22472;-79
2022/11/19 11:28:34;;;;;;;27.60;22.10;;;;;;;1.52;47.91;100112.13;107826;1289;23697;-79
2022/11/19 11:31:09;;;;;;;33.80;26.00;;;;;;;1.32;48.26;100109.81;107925;1289;22006;-82
2022/11/19 11:33:54;;;;;;;27.90;23.00;;;;;;;1.25;49.10;100107.44;108178;1281;21940;-81
2022/11/19 11:36:28;;;;;;;24.10;18.70;;;;;;;1.25;49.29;100104.35;108176;1282;21999;-81
2022/11/19 11:39:02;;;;;;;28.10;21.20;;;;;;;1.10;48.97;100107.32;108347;1282;23782;-82
2022/11/19 11:41:34;;;;;;;24.20;20.70;;;;;;;0.87;48.95;100107.38;108404;1274;21937;-78
2022/11/19 11:44:28;;;;;;;30.60;24.10;;;;;;;0.66;49.16;100109.13;108537;1272;22436;-78
2022/11/19 11:47:03;;;;;;;23.20;18.30;;;;;;;0.60;49.55;100109.14;108544;1275;22026;-79
2022/11/19 11:49:38;;;;;;;16.00;13.90;;;;;;;0.58;49.85;100108.28;108410;1277;22713;-78
2022/11/19 11:52:08;;;;;;;16.10;14.30;;;;;;;0.56;49.66;100110.33;108272;1283;22728;-82
2022/11/19 11:54:53;;;;;;;17.00;13.30;;;;;;;0.50;49.19;100109.30;108527;1282;21972;-80
2022/11/19 11:57:28;;;;;;;18.40;16.10;;;;;;;0.35;48.67;100104.18;107824;1289;22838;-79